Aérodrome :
LOGIN :

S'inscrire | Disclaimer

   EN    FR    IT 

 










Légende :    VFR   VFR Marginal   IFR   IFR Intensif   IFR Très Intensif
Visi : 
Plafond : 
>= 8 km
>= 3000ft
5 à 8 km
1000 à 3000 ft
1500m à 5 km
500 à 1000 ft
800 à 1500m
200 à 500 ft
< 800m
< 200 ft
Symboles :   Orages  Brouillard  Fortes neiges  Fortes précipitations  Vent > 20 kt
SIGMETs :   Divers  Orages  Givrage  Turbulence  Onde Orograph.  Cendres Volcan.







- Altitude de l'aérodrome : 202 ft
- Code IATA : LGW
- Voir les cartes d'approche


EGKK - London Gatwick

DERNIER METAR :
  • 261820Z 06014KT 9999 BKN015 19/16 Q1027

METARs EXPIRÉS :
  • 261750Z 04016KT 9999 BKN017 20/16 Q1026
  • 261720Z 05016KT 9999 SCT019 20/16 Q1026
  • 261650Z 05016KT 9999 SCT024 21/16 Q1026
  • 261620Z 05015KT 9999 SCT024 22/16 Q1026
  • 261550Z 05017KT 9999 FEW024 22/16 Q1026

TAF TAF EGKK
Valide du 26 à 18h jusqu'au 28 à 00h UTC


261702Z 2618/2724 04009KT 9999 SCT020
TEMPO 2618/2620 05015G25KT
PROB40
TEMPO 2622/2624 BKN010
TEMPO 2700/2708 8000 BKN010
PROB30
TEMPO 2713/2720 06015G25KT
PROB30
TEMPO 2720/2724 BKN014
Pas de NOTAMs connus pour ce terrain.



MET'MAP, la Météo Aéronautique d'un coup d'oeil ! - Copyright ORBIFLY Décembre 2007 - Disclaimer

ORBIFLY MET'MAP TEAM :

Programmation & Développement : Alexandra Zaïnal
Conception & Développement : Baudouin d'Aumeries
Co-Programmation & Développement : Marc-Olivier Méhu
Soutien technique & logistique : Manuel Goepfert

Contact : metmap@orbifly.com




SOURCES & CREDITS :

   NOAA